createdAt,value
2022-08-23T00:08:31.896Z,100
2022-08-23T00:18:34.545Z,100
2022-08-23T00:28:36.624Z,100
2022-08-23T00:48:40.824Z,100
2022-08-23T00:58:43.346Z,100
2022-08-23T01:08:45.099Z,100
2022-08-23T01:18:46.946Z,100
2022-08-23T01:28:48.667Z,100
2022-08-23T01:38:50.492Z,100
2022-08-23T01:48:52.422Z,100
2022-08-23T01:58:54.603Z,100
2022-08-23T02:08:56.520Z,100
2022-08-23T02:18:58.486Z,100
2022-08-23T02:29:00.051Z,100
2022-08-23T02:39:02.104Z,100
2022-08-23T02:49:04.372Z,100
2022-08-23T02:59:06.451Z,100
2022-08-23T03:09:08.769Z,100
2022-08-23T03:19:11.233Z,100
2022-08-23T03:49:17.669Z,100
2022-08-23T03:59:20.162Z,100
2022-08-23T04:19:24.385Z,100
2022-08-23T04:29:33.877Z,100
2022-08-23T04:32:26.462Z,100
2022-08-23T04:39:38.892Z,100
2022-08-23T04:49:40.625Z,100
2022-08-23T04:59:42.570Z,100
2022-08-23T05:09:44.305Z,100
2022-08-23T05:19:46.827Z,100
2022-08-23T05:29:48.578Z,100
2022-08-23T05:39:51.277Z,100
2022-08-23T05:49:53.680Z,100
2022-08-23T05:59:55.422Z,100
2022-08-23T06:09:57.635Z,100
2022-08-23T06:30:01.633Z,100
2022-08-23T06:40:03.582Z,100
2022-08-23T06:50:05.444Z,100
2022-08-23T07:00:07.305Z,100
2022-08-23T07:10:09.033Z,100
2022-08-23T07:20:10.815Z,100
2022-08-23T07:30:12.644Z,100
2022-08-23T07:40:20.440Z,100
2022-08-23T07:50:16.513Z,100
2022-08-23T08:00:18.539Z,100
2022-08-23T08:10:20.518Z,100
2022-08-23T08:20:22.833Z,100
2022-08-23T08:30:26.143Z,100
2022-08-23T08:40:26.872Z,100
2022-08-23T08:50:29.130Z,100
2022-08-23T09:00:31.245Z,100
2022-08-23T09:20:35.290Z,100
2022-08-23T09:30:37.254Z,100
2022-08-23T09:40:41.237Z,100
2022-08-23T09:50:40.808Z,100
2022-08-23T10:00:42.737Z,100
2022-08-23T10:10:45.196Z,100
2022-08-23T10:20:46.739Z,100
2022-08-23T10:30:48.616Z,100
2022-08-23T10:40:50.761Z,100
2022-08-23T10:50:55.510Z,100
2022-08-23T11:00:54.348Z,100
2022-08-23T11:10:57.019Z,98
2022-08-23T11:20:58.458Z,97
2022-08-23T11:31:01.009Z,92
2022-08-23T11:41:03.275Z,88
2022-08-23T11:51:05.472Z,87
2022-08-23T12:01:07.675Z,77
2022-08-23T12:11:10.008Z,78
2022-08-23T12:21:11.883Z,68
2022-08-23T12:31:14.366Z,71
2022-08-23T12:41:16.664Z,65
2022-08-23T12:51:18.749Z,69
2022-08-23T13:01:20.973Z,68
2022-08-23T13:11:23.412Z,67
2022-08-23T13:21:25.916Z,67
2022-08-23T13:31:27.917Z,68
2022-08-23T13:41:29.838Z,66
2022-08-23T13:51:32.495Z,59
2022-08-23T14:11:36.660Z,54
2022-08-23T14:41:43.449Z,56
2022-08-23T14:51:45.435Z,57
2022-08-23T15:01:47.382Z,56
2022-08-23T15:21:51.763Z,59
2022-08-23T15:51:58.735Z,66
2022-08-23T16:02:00.950Z,67
2022-08-23T16:12:02.770Z,66
2022-08-23T16:32:06.907Z,61
2022-08-23T16:42:09.363Z,75
2022-08-23T16:52:11.642Z,77
2022-08-23T17:02:14.285Z,80
2022-08-23T17:12:16.319Z,80
2022-08-23T17:22:18.039Z,82
2022-08-23T17:32:20.372Z,86
2022-08-23T17:42:22.206Z,90
2022-08-23T17:52:24.485Z,93
2022-08-23T18:02:26.542Z,95
2022-08-23T18:12:28.330Z,99
2022-08-23T18:22:29.994Z,100
2022-08-23T18:32:32.528Z,100
2022-08-23T18:42:34.437Z,100
2022-08-23T18:52:36.285Z,100
2022-08-23T19:02:38.621Z,100
2022-08-23T19:12:52.826Z,100
2022-08-23T19:22:42.515Z,100
2022-08-23T19:32:44.906Z,100
2022-08-23T19:42:47.505Z,100
2022-08-23T19:52:49.504Z,100
2022-08-23T20:02:51.628Z,100
2022-08-23T20:12:53.464Z,100
2022-08-23T20:22:55.388Z,100
2022-08-23T20:32:57.325Z,100
2022-08-23T20:42:59.374Z,100
2022-08-23T20:53:01.948Z,100
2022-08-23T21:03:04.146Z,100
2022-08-23T21:13:10.436Z,100
2022-08-23T21:23:08.984Z,100
2022-08-23T21:33:11.214Z,100
2022-08-23T21:43:13.584Z,100
2022-08-23T21:53:15.786Z,100
2022-08-23T22:03:18.341Z,100
2022-08-23T22:13:20.407Z,100
2022-08-23T22:23:22.612Z,100
2022-08-23T22:33:24.554Z,100
2022-08-23T22:43:27.038Z,100
2022-08-23T22:53:29.578Z,100
2022-08-23T23:03:32.006Z,100
2022-08-23T23:13:34.419Z,100
2022-08-23T23:33:38.514Z,100
2022-08-23T23:43:40.913Z,100
2022-08-23T23:53:43.574Z,100
